Flight Briefing

Flight
SQS84
Departure Arrival
Palopo Lagaligo / Bua (WAFD)
Click to view NOTAMS
Ujung Pandang Hasanuddin (WAAA)
Click to view NOTAMS
Departure Time Arrival Time
09:00 09.30
Aircraft Distance
C208B 125.842
Departure METAR Arrival METAR
WAAA 282330Z 12003KT 9999 FEW019 26/21 Q1010 NOSIG
Route



Notes



Additional Data
View recent IFR Routes data



Data Courtesy of FlightAware